sensor_id;sensor_type;location;lat;lon;timestamp;pressure;altitude;pressure_sealevel;temperature;humidity
11444;BME280;5778;47.856;12.154;2023-08-06T00:01:45;95710.97;;;15.05;100.00
11444;BME280;5778;47.856;12.154;2023-08-06T00:04:12;95718.72;;;15.06;100.00
11444;BME280;5778;47.856;12.154;2023-08-06T00:06:40;95705.00;;;15.08;100.00
11444;BME280;5778;47.856;12.154;2023-08-06T00:09:07;95719.50;;;15.07;100.00
11444;BME280;5778;47.856;12.154;2023-08-06T00:11:34;95720.59;;;15.06;100.00
11444;BME280;5778;47.856;12.154;2023-08-06T00:14:01;95714.13;;;15.07;100.00
11444;BME280;5778;47.856;12.154;2023-08-06T00:16:28;95716.91;;;15.02;100.00
11444;BME280;5778;47.856;12.154;2023-08-06T00:18:55;95718.06;;;14.96;100.00
11444;BME280;5778;47.856;12.154;2023-08-06T00:21:22;95719.75;;;14.92;100.00
11444;BME280;5778;47.856;12.154;2023-08-06T00:23:50;95724.56;;;14.76;100.00
11444;BME280;5778;47.856;12.154;2023-08-06T00:26:17;95715.03;;;14.70;100.00
11444;BME280;5778;47.856;12.154;2023-08-06T00:28:45;95717.63;;;14.75;100.00
11444;BME280;5778;47.856;12.154;2023-08-06T00:31:11;95707.63;;;14.81;100.00
11444;BME280;5778;47.856;12.154;2023-08-06T00:33:38;95708.63;;;14.85;100.00
11444;BME280;5778;47.856;12.154;2023-08-06T00:36:05;95707.25;;;14.87;100.00
11444;BME280;5778;47.856;12.154;2023-08-06T00:38:32;95702.91;;;14.91;100.00
11444;BME280;5778;47.856;12.154;2023-08-06T00:41:00;95703.19;;;14.90;100.00
11444;BME280;5778;47.856;12.154;2023-08-06T00:43:27;95698.84;;;14.94;100.00
11444;BME280;5778;47.856;12.154;2023-08-06T00:45:55;95706.28;;;14.97;100.00
11444;BME280;5778;47.856;12.154;2023-08-06T00:48:32;95701.72;;;14.97;100.00
11444;BME280;5778;47.856;12.154;2023-08-06T00:50:59;95702.22;;;14.99;100.00
11444;BME280;5778;47.856;12.154;2023-08-06T00:53:27;95711.34;;;14.98;100.00
11444;BME280;5778;47.856;12.154;2023-08-06T00:55:54;95698.44;;;14.87;100.00
11444;BME280;5778;47.856;12.154;2023-08-06T00:58:23;95714.56;;;14.82;100.00
11444;BME280;5778;47.856;12.154;2023-08-06T01:00:54;95709.47;;;14.67;100.00
11444;BME280;5778;47.856;12.154;2023-08-06T01:03:24;95724.91;;;14.70;100.00
11444;BME280;5778;47.856;12.154;2023-08-06T01:05:54;95718.41;;;14.76;100.00
11444;BME280;5778;47.856;12.154;2023-08-06T01:08:30;95746.50;;;14.60;100.00
11444;BME280;5778;47.856;12.154;2023-08-06T01:11:07;95742.94;;;14.64;100.00
11444;BME280;5778;47.856;12.154;2023-08-06T01:13:42;95745.13;;;14.62;100.00
11444;BME280;5778;47.856;12.154;2023-08-06T01:16:10;95755.09;;;14.57;100.00
11444;BME280;5778;47.856;12.154;2023-08-06T01:18:38;95738.97;;;14.62;100.00
11444;BME280;5778;47.856;12.154;2023-08-06T01:21:08;95742.22;;;14.59;100.00
11444;BME280;5778;47.856;12.154;2023-08-06T01:23:35;95740.28;;;14.64;100.00
11444;BME280;5778;47.856;12.154;2023-08-06T01:26:08;95736.22;;;14.67;100.00
11444;BME280;5778;47.856;12.154;2023-08-06T01:28:45;95741.56;;;14.67;100.00
11444;BME280;5778;47.856;12.154;2023-08-06T01:31:18;95731.88;;;14.71;100.00
11444;BME280;5778;47.856;12.154;2023-08-06T01:33:46;95735.06;;;14.73;100.00
11444;BME280;5778;47.856;12.154;2023-08-06T01:36:18;95733.41;;;14.77;100.00
11444;BME280;5778;47.856;12.154;2023-08-06T01:38:45;95738.53;;;14.73;100.00
11444;BME280;5778;47.856;12.154;2023-08-06T01:41:13;95725.44;;;14.72;100.00
11444;BME280;5778;47.856;12.154;2023-08-06T01:43:39;95734.03;;;14.69;100.00
11444;BME280;5778;47.856;12.154;2023-08-06T01:46:06;95730.88;;;14.67;100.00
11444;BME280;5778;47.856;12.154;2023-08-06T01:48:33;95730.66;;;14.63;100.00
11444;BME280;5778;47.856;12.154;2023-08-06T01:51:00;95716.19;;;14.64;100.00
11444;BME280;5778;47.856;12.154;2023-08-06T01:53:28;95711.13;;;14.63;100.00
11444;BME280;5778;47.856;12.154;2023-08-06T01:55:55;95704.19;;;14.62;100.00
11444;BME280;5778;47.856;12.154;2023-08-06T01:58:22;95693.34;;;14.53;100.00
11444;BME280;5778;47.856;12.154;2023-08-06T02:00:49;95697.34;;;14.56;100.00
11444;BME280;5778;47.856;12.154;2023-08-06T02:03:16;95698.72;;;14.53;100.00
11444;BME280;5778;47.856;12.154;2023-08-06T02:05:43;95700.00;;;14.56;100.00
11444;BME280;5778;47.856;12.154;2023-08-06T02:08:11;95704.41;;;14.47;100.00
11444;BME280;5778;47.856;12.154;2023-08-06T02:10:39;95706.22;;;14.51;100.00
11444;BME280;5778;47.856;12.154;2023-08-06T02:13:07;95705.06;;;14.57;100.00
11444;BME280;5778;47.856;12.154;2023-08-06T02:15:42;95713.59;;;14.59;100.00
11444;BME280;5778;47.856;12.154;2023-08-06T02:18:09;95698.34;;;14.60;100.00
11444;BME280;5778;47.856;12.154;2023-08-06T02:20:35;95696.16;;;14.62;100.00
11444;BME280;5778;47.856;12.154;2023-08-06T02:23:02;95694.56;;;14.61;100.00
11444;BME280;5778;47.856;12.154;2023-08-06T02:25:29;95690.00;;;14.61;100.00
11444;BME280;5778;47.856;12.154;2023-08-06T02:28:00;95691.09;;;14.60;100.00
11444;BME280;5778;47.856;12.154;2023-08-06T02:30:27;95686.63;;;14.56;100.00
11444;BME280;5778;47.856;12.154;2023-08-06T02:32:54;95679.19;;;14.53;100.00
11444;BME280;5778;47.856;12.154;2023-08-06T02:35:22;95675.59;;;14.44;100.00
11444;BME280;5778;47.856;12.154;2023-08-06T02:37:48;95678.25;;;14.44;100.00
11444;BME280;5778;47.856;12.154;2023-08-06T02:40:16;95672.41;;;14.42;100.00
11444;BME280;5778;47.856;12.154;2023-08-06T02:42:43;95679.84;;;14.45;100.00
11444;BME280;5778;47.856;12.154;2023-08-06T02:45:11;95671.69;;;14.36;100.00
11444;BME280;5778;47.856;12.154;2023-08-06T02:47:38;95675.22;;;14.32;100.00
11444;BME280;5778;47.856;12.154;2023-08-06T02:50:06;95651.28;;;14.40;100.00
11444;BME280;5778;47.856;12.154;2023-08-06T02:52:33;95651.88;;;14.37;100.00
11444;BME280;5778;47.856;12.154;2023-08-06T02:55:00;95653.25;;;14.35;100.00
11444;BME280;5778;47.856;12.154;2023-08-06T02:57:29;95645.22;;;14.35;100.00
11444;BME280;5778;47.856;12.154;2023-08-06T02:59:56;95635.34;;;14.35;100.00
11444;BME280;5778;47.856;12.154;2023-08-06T03:02:25;95639.16;;;14.29;100.00
11444;BME280;5778;47.856;12.154;2023-08-06T03:05:04;95629.25;;;14.30;100.00
11444;BME280;5778;47.856;12.154;2023-08-06T03:07:35;95629.81;;;14.27;100.00
11444;BME280;5778;47.856;12.154;2023-08-06T03:10:10;95632.00;;;14.25;100.00
11444;BME280;5778;47.856;12.154;2023-08-06T03:12:38;95633.09;;;14.24;100.00
11444;BME280;5778;47.856;12.154;2023-08-06T03:15:06;95629.34;;;14.25;100.00
11444;BME280;5778;47.856;12.154;2023-08-06T03:17:34;95628.56;;;14.24;100.00
11444;BME280;5778;47.856;12.154;2023-08-06T03:20:05;95623.50;;;14.23;100.00
11444;BME280;5778;47.856;12.154;2023-08-06T03:22:33;95627.25;;;14.22;100.00
11444;BME280;5778;47.856;12.154;2023-08-06T03:25:00;95613.38;;;14.20;100.00
11444;BME280;5778;47.856;12.154;2023-08-06T03:27:27;95612.03;;;14.17;100.00
11444;BME280;5778;47.856;12.154;2023-08-06T03:29:54;95606.19;;;14.15;100.00
11444;BME280;5778;47.856;12.154;2023-08-06T03:32:23;95603.81;;;14.14;100.00
11444;BME280;5778;47.856;12.154;2023-08-06T03:34:51;95607.38;;;14.09;100.00
11444;BME280;5778;47.856;12.154;2023-08-06T03:37:20;95613.28;;;14.06;100.00
11444;BME280;5778;47.856;12.154;2023-08-06T03:39:49;95597.03;;;14.03;100.00
11444;BME280;5778;47.856;12.154;2023-08-06T03:42:17;95607.94;;;14.06;100.00
11444;BME280;5778;47.856;12.154;2023-08-06T03:44:44;95603.19;;;14.03;100.00
11444;BME280;5778;47.856;12.154;2023-08-06T03:47:11;95606.13;;;14.02;100.00
11444;BME280;5778;47.856;12.154;2023-08-06T03:49:38;95611.69;;;14.05;100.00
11444;BME280;5778;47.856;12.154;2023-08-06T03:52:08;95604.75;;;14.04;100.00
11444;BME280;5778;47.856;12.154;2023-08-06T03:54:35;95613.41;;;13.96;100.00
11444;BME280;5778;47.856;12.154;2023-08-06T03:57:03;95606.28;;;13.92;100.00
11444;BME280;5778;47.856;12.154;2023-08-06T03:59:31;95604.97;;;13.89;100.00
11444;BME280;5778;47.856;12.154;2023-08-06T04:01:58;95609.56;;;13.89;100.00
11444;BME280;5778;47.856;12.154;2023-08-06T04:04:25;95608.47;;;13.90;100.00
11444;BME280;5778;47.856;12.154;2023-08-06T04:06:51;95613.81;;;13.90;100.00
11444;BME280;5778;47.856;12.154;2023-08-06T04:09:23;95607.16;;;13.87;100.00
11444;BME280;5778;47.856;12.154;2023-08-06T04:11:50;95615.66;;;13.89;100.00
11444;BME280;5778;47.856;12.154;2023-08-06T04:14:17;95617.31;;;13.85;100.00
11444;BME280;5778;47.856;12.154;2023-08-06T04:16:43;95611.78;;;13.82;100.00
11444;BME280;5778;47.856;12.154;2023-08-06T04:19:10;95608.06;;;13.78;100.00
11444;BME280;5778;47.856;12.154;2023-08-06T04:21:37;95602.44;;;13.98;100.00
11444;BME280;5778;47.856;12.154;2023-08-06T04:24:04;95596.00;;;13.99;100.00
11444;BME280;5778;47.856;12.154;2023-08-06T04:26:32;95594.94;;;14.00;100.00
11444;BME280;5778;47.856;12.154;2023-08-06T04:28:59;95595.31;;;13.93;100.00
11444;BME280;5778;47.856;12.154;2023-08-06T04:31:28;95593.41;;;13.94;100.00
11444;BME280;5778;47.856;12.154;2023-08-06T04:33:56;95597.69;;;13.95;100.00
11444;BME280;5778;47.856;12.154;2023-08-06T04:36:23;95595.03;;;13.95;100.00
11444;BME280;5778;47.856;12.154;2023-08-06T04:38:50;95587.50;;;13.97;100.00
11444;BME280;5778;47.856;12.154;2023-08-06T04:41:17;95592.28;;;14.00;100.00
11444;BME280;5778;47.856;12.154;2023-08-06T04:43:45;95585.78;;;14.06;100.00
11444;BME280;5778;47.856;12.154;2023-08-06T04:46:12;95593.06;;;14.00;100.00
11444;BME280;5778;47.856;12.154;2023-08-06T04:48:39;95584.97;;;14.05;100.00
11444;BME280;5778;47.856;12.154;2023-08-06T04:51:06;95590.66;;;13.99;100.00
11444;BME280;5778;47.856;12.154;2023-08-06T04:53:33;95581.88;;;13.98;100.00
11444;BME280;5778;47.856;12.154;2023-08-06T04:56:00;95583.75;;;13.98;100.00
11444;BME280;5778;47.856;12.154;2023-08-06T04:58:27;95583.94;;;14.01;100.00
11444;BME280;5778;47.856;12.154;2023-08-06T05:00:55;95584.97;;;14.05;100.00
11444;BME280;5778;47.856;12.154;2023-08-06T05:03:22;95591.13;;;14.06;100.00
11444;BME280;5778;47.856;12.154;2023-08-06T05:05:49;95591.69;;;14.03;100.00
11444;BME280;5778;47.856;12.154;2023-08-06T05:08:16;95590.03;;;14.07;100.00
11444;BME280;5778;47.856;12.154;2023-08-06T05:10:43;95591.31;;;14.09;100.00
11444;BME280;5778;47.856;12.154;2023-08-06T05:13:11;95590.16;;;14.15;100.00
11444;BME280;5778;47.856;12.154;2023-08-06T05:15:37;95590.38;;;14.19;100.00
11444;BME280;5778;47.856;12.154;2023-08-06T05:18:09;95599.44;;;14.23;100.00
11444;BME280;5778;47.856;12.154;2023-08-06T05:20:36;95604.09;;;14.31;100.00
11444;BME280;5778;47.856;12.154;2023-08-06T05:23:03;95599.19;;;14.38;100.00
11444;BME280;5778;47.856;12.154;2023-08-06T05:25:30;95595.81;;;14.46;100.00
11444;BME280;5778;47.856;12.154;2023-08-06T05:27:57;95590.09;;;14.52;100.00
11444;BME280;5778;47.856;12.154;2023-08-06T05:30:25;95579.81;;;14.59;100.00
11444;BME280;5778;47.856;12.154;2023-08-06T05:32:52;95583.78;;;14.62;100.00
11444;BME280;5778;47.856;12.154;2023-08-06T05:35:20;95583.41;;;14.68;100.00
11444;BME280;5778;47.856;12.154;2023-08-06T05:37:47;95582.50;;;14.73;100.00
11444;BME280;5778;47.856;12.154;2023-08-06T05:40:14;95588.53;;;14.78;100.00
11444;BME280;5778;47.856;12.154;2023-08-06T05:42:41;95585.69;;;14.88;100.00
11444;BME280;5778;47.856;12.154;2023-08-06T05:45:09;95584.00;;;14.92;100.00
11444;BME280;5778;47.856;12.154;2023-08-06T05:47:36;95586.59;;;14.97;100.00
11444;BME280;5778;47.856;12.154;2023-08-06T05:50:03;95590.66;;;14.95;100.00
11444;BME280;5778;47.856;12.154;2023-08-06T05:52:32;95588.47;;;14.97;100.00
11444;BME280;5778;47.856;12.154;2023-08-06T05:54:59;95586.31;;;14.99;100.00
11444;BME280;5778;47.856;12.154;2023-08-06T05:57:25;95593.72;;;15.02;100.00
11444;BME280;5778;47.856;12.154;2023-08-06T05:59:52;95598.59;;;15.00;100.00
11444;BME280;5778;47.856;12.154;2023-08-06T06:02:19;95599.69;;;14.99;100.00
11444;BME280;5778;47.856;12.154;2023-08-06T06:04:46;95597.59;;;15.09;100.00
11444;BME280;5778;47.856;12.154;2023-08-06T06:07:13;95596.94;;;15.04;100.00
11444;BME280;5778;47.856;12.154;2023-08-06T06:09:41;95592.75;;;15.11;100.00
11444;BME280;5778;47.856;12.154;2023-08-06T06:12:08;95588.28;;;15.20;100.00
11444;BME280;5778;47.856;12.154;2023-08-06T06:14:35;95592.16;;;15.28;100.00
11444;BME280;5778;47.856;12.154;2023-08-06T06:17:02;95589.88;;;15.35;100.00
11444;BME280;5778;47.856;12.154;2023-08-06T06:19:29;95585.72;;;15.42;100.00
11444;BME280;5778;47.856;12.154;2023-08-06T06:21:56;95581.06;;;15.48;100.00
11444;BME280;5778;47.856;12.154;2023-08-06T06:24:23;95584.22;;;15.50;100.00
11444;BME280;5778;47.856;12.154;2023-08-06T06:26:51;95584.22;;;15.50;100.00
11444;BME280;5778;47.856;12.154;2023-08-06T06:29:18;95585.50;;;15.52;100.00
11444;BME280;5778;47.856;12.154;2023-08-06T06:31:45;95583.53;;;15.58;100.00
11444;BME280;5778;47.856;12.154;2023-08-06T06:34:12;95588.56;;;15.59;100.00
11444;BME280;5778;47.856;12.154;2023-08-06T06:36:39;95596.78;;;15.63;100.00
11444;BME280;5778;47.856;12.154;2023-08-06T06:39:05;95597.50;;;15.68;100.00
11444;BME280;5778;47.856;12.154;2023-08-06T06:41:33;95593.72;;;15.69;100.00
11444;BME280;5778;47.856;12.154;2023-08-06T06:44:10;95589.63;;;15.72;100.00
11444;BME280;5778;47.856;12.154;2023-08-06T06:46:37;95597.09;;;15.75;100.00
11444;BME280;5778;47.856;12.154;2023-08-06T06:49:04;95599.16;;;15.78;100.00
11444;BME280;5778;47.856;12.154;2023-08-06T06:51:31;95596.84;;;15.85;100.00
11444;BME280;5778;47.856;12.154;2023-08-06T06:53:58;95601.91;;;15.86;100.00
11444;BME280;5778;47.856;12.154;2023-08-06T06:56:25;95606.38;;;15.91;100.00
11444;BME280;5778;47.856;12.154;2023-08-06T06:58:51;95611.25;;;15.89;100.00
11444;BME280;5778;47.856;12.154;2023-08-06T07:01:20;95611.13;;;15.94;100.00
11444;BME280;5778;47.856;12.154;2023-08-06T07:03:47;95610.41;;;16.02;100.00
11444;BME280;5778;47.856;12.154;2023-08-06T07:06:14;95611.00;;;15.99;100.00
11444;BME280;5778;47.856;12.154;2023-08-06T07:08:41;95600.75;;;16.01;100.00
11444;BME280;5778;47.856;12.154;2023-08-06T07:11:08;95599.38;;;16.03;100.00
11444;BME280;5778;47.856;12.154;2023-08-06T07:13:35;95598.97;;;16.10;100.00
11444;BME280;5778;47.856;12.154;2023-08-06T07:16:02;95605.59;;;16.12;100.00
11444;BME280;5778;47.856;12.154;2023-08-06T07:18:30;95593.47;;;16.15;100.00
11444;BME280;5778;47.856;12.154;2023-08-06T07:20:57;95602.00;;;16.17;100.00
11444;BME280;5778;47.856;12.154;2023-08-06T07:23:25;95598.44;;;16.21;100.00
11444;BME280;5778;47.856;12.154;2023-08-06T07:25:52;95595.50;;;16.31;100.00
11444;BME280;5778;47.856;12.154;2023-08-06T07:28:19;95598.28;;;16.40;100.00
11444;BME280;5778;47.856;12.154;2023-08-06T07:32:06;95584.00;;;16.53;100.00
11444;BME280;5778;47.856;12.154;2023-08-06T07:34:33;95587.66;;;16.57;100.00
11444;BME280;5778;47.856;12.154;2023-08-06T07:37:00;95569.97;;;16.56;100.00
11444;BME280;5778;47.856;12.154;2023-08-06T07:39:27;95573.81;;;16.72;100.00
11444;BME280;5778;47.856;12.154;2023-08-06T07:41:54;95570.53;;;16.75;100.00
11444;BME280;5778;47.856;12.154;2023-08-06T07:44:21;95574.44;;;16.69;100.00
11444;BME280;5778;47.856;12.154;2023-08-06T07:46:49;95569.50;;;16.62;100.00
11444;BME280;5778;47.856;12.154;2023-08-06T07:49:18;95566.81;;;16.62;100.00
11444;BME280;5778;47.856;12.154;2023-08-06T07:51:44;95574.28;;;16.65;100.00
11444;BME280;5778;47.856;12.154;2023-08-06T07:54:11;95563.75;;;16.47;100.00
11444;BME280;5778;47.856;12.154;2023-08-06T07:56:38;95576.56;;;16.36;100.00
11444;BME280;5778;47.856;12.154;2023-08-06T07:59:05;95577.28;;;16.42;100.00
11444;BME280;5778;47.856;12.154;2023-08-06T08:01:32;95600.44;;;16.38;100.00
11444;BME280;5778;47.856;12.154;2023-08-06T08:03:59;95587.69;;;16.21;100.00
11444;BME280;5778;47.856;12.154;2023-08-06T08:06:27;95586.53;;;16.14;100.00
11444;BME280;5778;47.856;12.154;2023-08-06T08:08:54;95592.19;;;16.12;100.00
11444;BME280;5778;47.856;12.154;2023-08-06T08:11:21;95600.97;;;16.04;100.00
11444;BME280;5778;47.856;12.154;2023-08-06T08:13:48;95615.50;;;15.90;100.00
11444;BME280;5778;47.856;12.154;2023-08-06T08:16:15;95599.41;;;15.90;100.00
11444;BME280;5778;47.856;12.154;2023-08-06T08:18:42;95588.69;;;15.90;100.00
11444;BME280;5778;47.856;12.154;2023-08-06T08:21:09;95588.22;;;16.10;100.00
11444;BME280;5778;47.856;12.154;2023-08-06T08:23:37;95583.44;;;15.85;100.00
11444;BME280;5778;47.856;12.154;2023-08-06T08:26:04;95590.66;;;15.98;100.00
11444;BME280;5778;47.856;12.154;2023-08-06T08:28:31;95573.34;;;16.04;100.00
11444;BME280;5778;47.856;12.154;2023-08-06T08:30:58;95579.88;;;16.11;100.00
11444;BME280;5778;47.856;12.154;2023-08-06T08:33:25;95577.09;;;16.16;100.00
11444;BME280;5778;47.856;12.154;2023-08-06T08:35:52;95569.22;;;16.20;100.00
11444;BME280;5778;47.856;12.154;2023-08-06T08:38:19;95584.38;;;16.24;100.00
11444;BME280;5778;47.856;12.154;2023-08-06T08:40:51;95574.22;;;16.35;100.00
11444;BME280;5778;47.856;12.154;2023-08-06T08:43:21;95556.41;;;16.39;100.00
11444;BME280;5778;47.856;12.154;2023-08-06T08:45:50;95562.56;;;16.61;100.00
11444;BME280;5778;47.856;12.154;2023-08-06T08:48:18;95554.25;;;16.71;100.00
11444;BME280;5778;47.856;12.154;2023-08-06T08:50:47;95554.81;;;16.60;100.00
11444;BME280;5778;47.856;12.154;2023-08-06T08:53:16;95553.53;;;16.57;100.00
11444;BME280;5778;47.856;12.154;2023-08-06T08:55:46;95552.63;;;16.62;100.00
11444;BME280;5778;47.856;12.154;2023-08-06T08:58:15;95560.56;;;16.67;100.00
11444;BME280;5778;47.856;12.154;2023-08-06T09:00:42;95568.19;;;16.82;100.00
11444;BME280;5778;47.856;12.154;2023-08-06T09:03:09;95572.81;;;16.90;100.00
11444;BME280;5778;47.856;12.154;2023-08-06T09:05:41;95569.09;;;16.69;100.00
11444;BME280;5778;47.856;12.154;2023-08-06T09:08:12;95571.63;;;16.74;100.00
11444;BME280;5778;47.856;12.154;2023-08-06T09:10:43;95575.44;;;16.73;100.00
11444;BME280;5778;47.856;12.154;2023-08-06T09:13:10;95583.34;;;16.78;100.00
11444;BME280;5778;47.856;12.154;2023-08-06T09:15:39;95565.59;;;16.68;100.00
11444;BME280;5778;47.856;12.154;2023-08-06T09:18:09;95574.44;;;16.99;100.00
11444;BME280;5778;47.856;12.154;2023-08-06T09:20:37;95562.44;;;17.05;100.00
11444;BME280;5778;47.856;12.154;2023-08-06T09:23:07;95570.47;;;16.97;100.00
11444;BME280;5778;47.856;12.154;2023-08-06T09:25:37;95572.59;;;17.08;100.00
11444;BME280;5778;47.856;12.154;2023-08-06T09:28:04;95568.41;;;17.33;100.00
11444;BME280;5778;47.856;12.154;2023-08-06T09:30:33;95582.66;;;17.42;100.00
11444;BME280;5778;47.856;12.154;2023-08-06T09:33:02;95569.91;;;17.47;100.00
11444;BME280;5778;47.856;12.154;2023-08-06T09:35:29;95561.09;;;17.25;100.00
11444;BME280;5778;47.856;12.154;2023-08-06T09:38:05;95567.59;;;17.32;100.00
11444;BME280;5778;47.856;12.154;2023-08-06T09:40:34;95572.94;;;17.24;100.00
11444;BME280;5778;47.856;12.154;2023-08-06T09:43:02;95569.44;;;17.15;100.00
11444;BME280;5778;47.856;12.154;2023-08-06T09:45:31;95573.09;;;17.19;100.00
11444;BME280;5778;47.856;12.154;2023-08-06T09:47:59;95569.88;;;17.00;100.00
11444;BME280;5778;47.856;12.154;2023-08-06T09:50:30;95578.81;;;16.87;100.00
11444;BME280;5778;47.856;12.154;2023-08-06T09:52:58;95584.91;;;16.70;100.00
11444;BME280;5778;47.856;12.154;2023-08-06T09:55:25;95574.09;;;16.62;100.00
11444;BME280;5778;47.856;12.154;2023-08-06T09:57:53;95571.44;;;16.62;100.00
11444;BME280;5778;47.856;12.154;2023-08-06T10:00:20;95569.50;;;16.62;100.00
11444;BME280;5778;47.856;12.154;2023-08-06T10:02:48;95576.72;;;16.75;100.00
11444;BME280;5778;47.856;12.154;2023-08-06T10:05:17;95577.69;;;16.88;100.00
11444;BME280;5778;47.856;12.154;2023-08-06T10:07:47;95567.31;;;16.95;100.00
11444;BME280;5778;47.856;12.154;2023-08-06T10:10:14;95571.91;;;17.03;100.00
11444;BME280;5778;47.856;12.154;2023-08-06T10:12:46;95562.34;;;17.19;100.00
11444;BME280;5778;47.856;12.154;2023-08-06T10:15:17;95568.53;;;17.19;100.00
11444;BME280;5778;47.856;12.154;2023-08-06T10:17:45;95572.59;;;17.56;100.00
11444;BME280;5778;47.856;12.154;2023-08-06T10:20:14;95575.31;;;17.73;100.00
11444;BME280;5778;47.856;12.154;2023-08-06T10:22:43;95565.66;;;18.23;100.00
11444;BME280;5778;47.856;12.154;2023-08-06T10:25:16;95571.22;;;18.01;100.00
11444;BME280;5778;47.856;12.154;2023-08-06T10:27:53;95551.75;;;17.87;100.00
11444;BME280;5778;47.856;12.154;2023-08-06T10:30:22;95568.19;;;17.77;100.00
11444;BME280;5778;47.856;12.154;2023-08-06T10:32:51;95575.63;;;17.71;100.00
11444;BME280;5778;47.856;12.154;2023-08-06T10:35:28;95572.94;;;17.71;100.00
11444;BME280;5778;47.856;12.154;2023-08-06T10:37:58;95580.22;;;17.62;100.00
11444;BME280;5778;47.856;12.154;2023-08-06T10:40:27;95585.59;;;17.71;100.00
11444;BME280;5778;47.856;12.154;2023-08-06T10:42:58;95576.75;;;17.79;100.00
11444;BME280;5778;47.856;12.154;2023-08-06T10:45:26;95586.06;;;17.64;100.00
11444;BME280;5778;47.856;12.154;2023-08-06T10:47:55;95582.88;;;17.54;100.00
11444;BME280;5778;47.856;12.154;2023-08-06T10:50:22;95579.84;;;17.55;100.00
11444;BME280;5778;47.856;12.154;2023-08-06T10:52:50;95582.13;;;17.79;100.00
11444;BME280;5778;47.856;12.154;2023-08-06T10:55:24;95584.66;;;17.75;100.00
11444;BME280;5778;47.856;12.154;2023-08-06T10:57:54;95582.09;;;17.62;100.00
11444;BME280;5778;47.856;12.154;2023-08-06T11:00:21;95586.00;;;17.39;100.00
11444;BME280;5778;47.856;12.154;2023-08-06T11:02:49;95595.13;;;17.38;100.00
11444;BME280;5778;47.856;12.154;2023-08-06T11:05:17;95584.16;;;17.26;100.00
11444;BME280;5778;47.856;12.154;2023-08-06T11:07:44;95594.25;;;17.12;100.00
11444;BME280;5778;47.856;12.154;2023-08-06T11:10:12;95594.31;;;17.29;100.00
11444;BME280;5778;47.856;12.154;2023-08-06T11:12:39;95611.03;;;17.26;100.00
11444;BME280;5778;47.856;12.154;2023-08-06T11:15:09;95628.41;;;17.20;100.00
11444;BME280;5778;47.856;12.154;2023-08-06T11:17:39;95602.91;;;17.09;100.00
11444;BME280;5778;47.856;12.154;2023-08-06T11:20:07;95611.63;;;17.06;100.00
11444;BME280;5778;47.856;12.154;2023-08-06T11:22:36;95672.19;;;16.90;100.00
11444;BME280;5778;47.856;12.154;2023-08-06T11:25:04;95611.66;;;16.84;100.00
11444;BME280;5778;47.856;12.154;2023-08-06T11:27:31;95607.94;;;17.02;100.00
11444;BME280;5778;47.856;12.154;2023-08-06T11:29:59;95619.66;;;17.06;100.00
11444;BME280;5778;47.856;12.154;2023-08-06T11:32:27;95647.41;;;17.32;100.00
11444;BME280;5778;47.856;12.154;2023-08-06T11:34:54;95620.91;;;17.00;100.00
11444;BME280;5778;47.856;12.154;2023-08-06T11:37:22;95631.53;;;17.05;100.00
11444;BME280;5778;47.856;12.154;2023-08-06T11:39:51;95634.88;;;17.19;100.00
11444;BME280;5778;47.856;12.154;2023-08-06T11:42:18;95638.50;;;17.14;100.00
11444;BME280;5778;47.856;12.154;2023-08-06T11:44:45;95638.50;;;16.84;100.00
11444;BME280;5778;47.856;12.154;2023-08-06T11:47:14;95638.00;;;16.82;100.00
11444;BME280;5778;47.856;12.154;2023-08-06T11:49:44;95624.66;;;16.99;100.00
11444;BME280;5778;47.856;12.154;2023-08-06T11:52:14;95622.34;;;17.06;100.00
11444;BME280;5778;47.856;12.154;2023-08-06T11:54:41;95642.69;;;16.98;100.00
11444;BME280;5778;47.856;12.154;2023-08-06T11:57:08;95629.91;;;17.04;100.00
11444;BME280;5778;47.856;12.154;2023-08-06T11:59:37;95641.50;;;17.13;100.00
11444;BME280;5778;47.856;12.154;2023-08-06T12:02:05;95667.34;;;17.31;100.00
11444;BME280;5778;47.856;12.154;2023-08-06T12:07:42;95647.81;;;16.78;100.00
11444;BME280;5778;47.856;12.154;2023-08-06T12:10:09;95639.41;;;16.79;100.00
11444;BME280;5778;47.856;12.154;2023-08-06T12:12:36;95637.16;;;16.95;100.00
11444;BME280;5778;47.856;12.154;2023-08-06T12:15:04;95616.91;;;16.89;100.00
11444;BME280;5778;47.856;12.154;2023-08-06T12:17:32;95638.72;;;16.96;100.00
11444;BME280;5778;47.856;12.154;2023-08-06T12:19:59;95636.19;;;17.30;100.00
11444;BME280;5778;47.856;12.154;2023-08-06T12:22:26;95642.44;;;17.39;100.00
11444;BME280;5778;47.856;12.154;2023-08-06T12:24:55;95660.56;;;17.33;100.00
11444;BME280;5778;47.856;12.154;2023-08-06T12:27:22;95654.56;;;17.36;100.00
11444;BME280;5778;47.856;12.154;2023-08-06T12:29:48;95645.31;;;17.51;100.00
11444;BME280;5778;47.856;12.154;2023-08-06T12:32:15;95654.41;;;17.72;100.00
11444;BME280;5778;47.856;12.154;2023-08-06T12:34:43;95691.78;;;17.21;100.00
11444;BME280;5778;47.856;12.154;2023-08-06T12:37:10;95628.28;;;17.25;100.00
11444;BME280;5778;47.856;12.154;2023-08-06T12:39:37;95638.81;;;17.43;100.00
11444;BME280;5778;47.856;12.154;2023-08-06T12:42:06;95647.03;;;18.03;100.00
11444;BME280;5778;47.856;12.154;2023-08-06T12:44:33;95650.88;;;17.63;100.00
11444;BME280;5778;47.856;12.154;2023-08-06T12:47:00;95631.22;;;18.18;100.00
11444;BME280;5778;47.856;12.154;2023-08-06T12:49:26;95647.88;;;18.63;100.00
11444;BME280;5778;47.856;12.154;2023-08-06T12:51:54;95642.59;;;18.07;100.00
11444;BME280;5778;47.856;12.154;2023-08-06T12:54:22;95656.16;;;17.85;100.00
11444;BME280;5778;47.856;12.154;2023-08-06T12:56:49;95649.22;;;17.84;100.00
11444;BME280;5778;47.856;12.154;2023-08-06T12:59:18;95676.66;;;17.64;100.00